sensor_id;sensor_type;location;lat;lon;timestamp;P1;durP1;ratioP1;P2;durP2;ratioP2
61330;SDS011;57640;52.472;-1.950;2023-05-17T00:01:16;3.70;;;2.45;;
61330;SDS011;57640;52.472;-1.950;2023-05-17T00:04:21;4.20;;;2.38;;
61330;SDS011;57640;52.472;-1.950;2023-05-17T00:07:27;4.60;;;2.63;;
61330;SDS011;57640;52.472;-1.950;2023-05-17T00:10:35;3.42;;;2.65;;
61330;SDS011;57640;52.472;-1.950;2023-05-17T00:13:40;3.35;;;2.47;;
61330;SDS011;57640;52.472;-1.950;2023-05-17T00:16:45;4.18;;;2.33;;
61330;SDS011;57640;52.472;-1.950;2023-05-17T00:19:51;6.13;;;2.40;;
61330;SDS011;57640;52.472;-1.950;2023-05-17T00:22:56;3.08;;;2.42;;
61330;SDS011;57640;52.472;-1.950;2023-05-17T00:26:04;4.03;;;2.60;;
61330;SDS011;57640;52.472;-1.950;2023-05-17T00:29:10;3.88;;;2.25;;
61330;SDS011;57640;52.472;-1.950;2023-05-17T00:32:15;4.78;;;2.58;;
61330;SDS011;57640;52.472;-1.950;2023-05-17T00:35:20;3.20;;;2.30;;
61330;SDS011;57640;52.472;-1.950;2023-05-17T00:38:26;3.83;;;2.20;;
61330;SDS011;57640;52.472;-1.950;2023-05-17T00:41:34;3.25;;;2.30;;
61330;SDS011;57640;52.472;-1.950;2023-05-17T00:44:39;4.22;;;2.40;;
61330;SDS011;57640;52.472;-1.950;2023-05-17T00:47:45;4.78;;;2.60;;
61330;SDS011;57640;52.472;-1.950;2023-05-17T00:50:50;4.05;;;2.40;;
61330;SDS011;57640;52.472;-1.950;2023-05-17T00:53:56;3.40;;;2.35;;
61330;SDS011;57640;52.472;-1.950;2023-05-17T00:57:04;3.75;;;2.25;;
61330;SDS011;57640;52.472;-1.950;2023-05-17T01:00:10;4.80;;;2.33;;
61330;SDS011;57640;52.472;-1.950;2023-05-17T01:03:15;3.25;;;2.10;;
61330;SDS011;57640;52.472;-1.950;2023-05-17T01:06:21;3.47;;;2.28;;
61330;SDS011;57640;52.472;-1.950;2023-05-17T01:09:26;3.75;;;2.50;;
61330;SDS011;57640;52.472;-1.950;2023-05-17T01:12:37;3.30;;;2.40;;
61330;SDS011;57640;52.472;-1.950;2023-05-17T01:15:45;3.65;;;2.25;;
61330;SDS011;57640;52.472;-1.950;2023-05-17T01:18:55;3.53;;;2.40;;
61330;SDS011;57640;52.472;-1.950;2023-05-17T01:25:10;2.85;;;2.22;;
61330;SDS011;57640;52.472;-1.950;2023-05-17T01:28:22;2.80;;;2.20;;
61330;SDS011;57640;52.472;-1.950;2023-05-17T01:31:28;3.15;;;2.13;;
61330;SDS011;57640;52.472;-1.950;2023-05-17T01:34:34;2.90;;;2.00;;
61330;SDS011;57640;52.472;-1.950;2023-05-17T01:37:39;2.65;;;1.80;;
61330;SDS011;57640;52.472;-1.950;2023-05-17T01:40:46;3.10;;;2.30;;
61330;SDS011;57640;52.472;-1.950;2023-05-17T01:43:57;3.25;;;2.30;;
61330;SDS011;57640;52.472;-1.950;2023-05-17T01:47:04;3.45;;;2.30;;
61330;SDS011;57640;52.472;-1.950;2023-05-17T01:50:14;3.45;;;2.22;;
61330;SDS011;57640;52.472;-1.950;2023-05-17T01:53:19;8.02;;;2.50;;
61330;SDS011;57640;52.472;-1.950;2023-05-17T01:56:33;3.90;;;2.42;;
61330;SDS011;57640;52.472;-1.950;2023-05-17T01:59:41;3.50;;;2.35;;
61330;SDS011;57640;52.472;-1.950;2023-05-17T02:02:48;2.63;;;2.20;;
61330;SDS011;57640;52.472;-1.950;2023-05-17T02:05:53;4.57;;;2.40;;
61330;SDS011;57640;52.472;-1.950;2023-05-17T02:08:58;3.47;;;2.47;;
61330;SDS011;57640;52.472;-1.950;2023-05-17T02:12:04;5.80;;;2.20;;
61330;SDS011;57640;52.472;-1.950;2023-05-17T02:15:13;3.65;;;2.30;;
61330;SDS011;57640;52.472;-1.950;2023-05-17T02:18:18;3.15;;;2.50;;
61330;SDS011;57640;52.472;-1.950;2023-05-17T02:21:23;3.97;;;2.50;;
61330;SDS011;57640;52.472;-1.950;2023-05-17T02:24:29;3.35;;;2.40;;
61330;SDS011;57640;52.472;-1.950;2023-05-17T02:27:34;2.67;;;2.20;;
61330;SDS011;57640;52.472;-1.950;2023-05-17T02:30:42;3.20;;;2.30;;
61330;SDS011;57640;52.472;-1.950;2023-05-17T02:33:48;3.03;;;2.22;;
61330;SDS011;57640;52.472;-1.950;2023-05-17T02:36:54;3.80;;;2.50;;
61330;SDS011;57640;52.472;-1.950;2023-05-17T02:40:03;2.97;;;2.45;;
61330;SDS011;57640;52.472;-1.950;2023-05-17T02:43:13;3.35;;;2.42;;
61330;SDS011;57640;52.472;-1.950;2023-05-17T02:46:21;3.55;;;2.47;;
61330;SDS011;57640;52.472;-1.950;2023-05-17T02:49:26;3.10;;;2.35;;
61330;SDS011;57640;52.472;-1.950;2023-05-17T02:52:32;3.35;;;2.58;;
61330;SDS011;57640;52.472;-1.950;2023-05-17T02:55:37;3.05;;;2.50;;
61330;SDS011;57640;52.472;-1.950;2023-05-17T02:58:42;4.28;;;2.67;;
61330;SDS011;57640;52.472;-1.950;2023-05-17T03:01:50;4.85;;;2.42;;
61330;SDS011;57640;52.472;-1.950;2023-05-17T03:04:55;3.53;;;2.38;;
61330;SDS011;57640;52.472;-1.950;2023-05-17T03:08:01;3.88;;;2.60;;
61330;SDS011;57640;52.472;-1.950;2023-05-17T03:11:06;3.90;;;2.50;;
61330;SDS011;57640;52.472;-1.950;2023-05-17T03:14:11;3.40;;;2.50;;
61330;SDS011;57640;52.472;-1.950;2023-05-17T03:17:20;3.08;;;2.30;;
61330;SDS011;57640;52.472;-1.950;2023-05-17T03:20:25;3.28;;;2.42;;
61330;SDS011;57640;52.472;-1.950;2023-05-17T03:23:31;3.83;;;2.42;;
61330;SDS011;57640;52.472;-1.950;2023-05-17T03:26:36;4.00;;;2.50;;
61330;SDS011;57640;52.472;-1.950;2023-05-17T03:29:42;3.97;;;2.60;;
61330;SDS011;57640;52.472;-1.950;2023-05-17T03:32:51;3.17;;;2.40;;
61330;SDS011;57640;52.472;-1.950;2023-05-17T03:35:57;3.50;;;2.30;;
61330;SDS011;57640;52.472;-1.950;2023-05-17T03:39:02;4.07;;;2.65;;
61330;SDS011;57640;52.472;-1.950;2023-05-17T03:42:07;4.78;;;2.60;;
61330;SDS011;57640;52.472;-1.950;2023-05-17T03:45:13;3.42;;;2.40;;
61330;SDS011;57640;52.472;-1.950;2023-05-17T03:48:21;3.22;;;2.72;;
61330;SDS011;57640;52.472;-1.950;2023-05-17T03:51:26;8.73;;;2.90;;
61330;SDS011;57640;52.472;-1.950;2023-05-17T03:54:32;3.42;;;2.47;;
61330;SDS011;57640;52.472;-1.950;2023-05-17T03:57:37;4.10;;;2.60;;
61330;SDS011;57640;52.472;-1.950;2023-05-17T04:00:42;4.40;;;2.55;;
61330;SDS011;57640;52.472;-1.950;2023-05-17T04:03:50;4.45;;;2.70;;
61330;SDS011;57640;52.472;-1.950;2023-05-17T04:06:56;3.83;;;2.40;;
61330;SDS011;57640;52.472;-1.950;2023-05-17T04:10:01;3.15;;;2.58;;
61330;SDS011;57640;52.472;-1.950;2023-05-17T04:13:07;3.75;;;2.22;;
61330;SDS011;57640;52.472;-1.950;2023-05-17T04:16:12;3.65;;;2.47;;
61330;SDS011;57640;52.472;-1.950;2023-05-17T04:19:20;3.33;;;2.30;;
61330;SDS011;57640;52.472;-1.950;2023-05-17T04:22:26;3.33;;;2.45;;
61330;SDS011;57640;52.472;-1.950;2023-05-17T04:25:31;3.00;;;2.35;;
61330;SDS011;57640;52.472;-1.950;2023-05-17T04:28:36;2.60;;;2.40;;
61330;SDS011;57640;52.472;-1.950;2023-05-17T04:31:42;3.53;;;2.60;;
61330;SDS011;57640;52.472;-1.950;2023-05-17T04:34:51;3.40;;;2.58;;
61330;SDS011;57640;52.472;-1.950;2023-05-17T04:37:57;3.75;;;2.33;;
61330;SDS011;57640;52.472;-1.950;2023-05-17T04:41:03;3.10;;;2.20;;
61330;SDS011;57640;52.472;-1.950;2023-05-17T04:44:08;4.45;;;2.53;;
61330;SDS011;57640;52.472;-1.950;2023-05-17T04:47:13;3.72;;;2.40;;
61330;SDS011;57640;52.472;-1.950;2023-05-17T04:50:22;2.70;;;2.30;;
61330;SDS011;57640;52.472;-1.950;2023-05-17T04:53:27;2.72;;;2.10;;
61330;SDS011;57640;52.472;-1.950;2023-05-17T04:56:33;3.70;;;2.35;;
61330;SDS011;57640;52.472;-1.950;2023-05-17T04:59:38;3.83;;;2.45;;
61330;SDS011;57640;52.472;-1.950;2023-05-17T05:02:44;3.60;;;2.50;;
61330;SDS011;57640;52.472;-1.950;2023-05-17T05:05:51;3.25;;;2.38;;
61330;SDS011;57640;52.472;-1.950;2023-05-17T05:08:57;4.40;;;2.40;;
61330;SDS011;57640;52.472;-1.950;2023-05-17T05:12:02;2.90;;;2.25;;
61330;SDS011;57640;52.472;-1.950;2023-05-17T05:15:09;3.25;;;2.42;;
61330;SDS011;57640;52.472;-1.950;2023-05-17T05:18:14;2.85;;;2.35;;
61330;SDS011;57640;52.472;-1.950;2023-05-17T05:21:22;2.35;;;1.92;;
61330;SDS011;57640;52.472;-1.950;2023-05-17T05:24:27;3.33;;;2.30;;
61330;SDS011;57640;52.472;-1.950;2023-05-17T05:27:33;4.10;;;2.47;;
61330;SDS011;57640;52.472;-1.950;2023-05-17T05:30:39;4.30;;;2.38;;
61330;SDS011;57640;52.472;-1.950;2023-05-17T05:33:44;2.75;;;2.13;;
61330;SDS011;57640;52.472;-1.950;2023-05-17T05:36:52;2.45;;;2.00;;
61330;SDS011;57640;52.472;-1.950;2023-05-17T05:39:57;3.17;;;2.50;;
61330;SDS011;57640;52.472;-1.950;2023-05-17T05:43:03;2.65;;;2.17;;
61330;SDS011;57640;52.472;-1.950;2023-05-17T05:46:08;2.53;;;2.30;;
61330;SDS011;57640;52.472;-1.950;2023-05-17T05:49:13;3.10;;;2.53;;
61330;SDS011;57640;52.472;-1.950;2023-05-17T05:52:21;3.88;;;2.30;;
61330;SDS011;57640;52.472;-1.950;2023-05-17T05:55:26;3.42;;;2.58;;
61330;SDS011;57640;52.472;-1.950;2023-05-17T05:58:32;3.78;;;2.70;;
61330;SDS011;57640;52.472;-1.950;2023-05-17T06:01:37;3.15;;;2.55;;
61330;SDS011;57640;52.472;-1.950;2023-05-17T06:04:42;3.60;;;2.55;;
61330;SDS011;57640;52.472;-1.950;2023-05-17T06:07:50;2.80;;;2.30;;
61330;SDS011;57640;52.472;-1.950;2023-05-17T06:10:56;2.95;;;2.30;;
61330;SDS011;57640;52.472;-1.950;2023-05-17T06:14:02;3.08;;;2.28;;
61330;SDS011;57640;52.472;-1.950;2023-05-17T06:17:07;3.50;;;2.35;;
61330;SDS011;57640;52.472;-1.950;2023-05-17T06:20:12;3.50;;;2.50;;
61330;SDS011;57640;52.472;-1.950;2023-05-17T06:23:20;3.40;;;2.50;;
61330;SDS011;57640;52.472;-1.950;2023-05-17T06:29:32;3.13;;;2.30;;
61330;SDS011;57640;52.472;-1.950;2023-05-17T06:32:38;3.35;;;2.30;;
61330;SDS011;57640;52.472;-1.950;2023-05-17T06:35:43;2.78;;;2.10;;
61330;SDS011;57640;52.472;-1.950;2023-05-17T06:38:51;2.72;;;2.00;;
61330;SDS011;57640;52.472;-1.950;2023-05-17T06:41:56;2.90;;;2.33;;
61330;SDS011;57640;52.472;-1.950;2023-05-17T06:45:02;3.33;;;2.10;;
61330;SDS011;57640;52.472;-1.950;2023-05-17T06:48:08;3.55;;;2.00;;
61330;SDS011;57640;52.472;-1.950;2023-05-17T06:51:13;2.30;;;1.90;;
61330;SDS011;57640;52.472;-1.950;2023-05-17T06:54:21;2.30;;;2.00;;
61330;SDS011;57640;52.472;-1.950;2023-05-17T06:57:27;2.20;;;1.85;;
61330;SDS011;57640;52.472;-1.950;2023-05-17T07:00:32;2.35;;;1.70;;
61330;SDS011;57640;52.472;-1.950;2023-05-17T07:03:43;3.03;;;1.98;;
61330;SDS011;57640;52.472;-1.950;2023-05-17T07:06:48;3.10;;;1.90;;
61330;SDS011;57640;52.472;-1.950;2023-05-17T07:09:56;2.30;;;2.00;;
61330;SDS011;57640;52.472;-1.950;2023-05-17T07:13:01;2.97;;;2.13;;
61330;SDS011;57640;52.472;-1.950;2023-05-17T07:16:07;3.58;;;1.92;;
61330;SDS011;57640;52.472;-1.950;2023-05-17T07:19:12;3.33;;;2.03;;
61330;SDS011;57640;52.472;-1.950;2023-05-17T07:22:18;2.88;;;2.10;;
61330;SDS011;57640;52.472;-1.950;2023-05-17T07:25:26;3.00;;;2.05;;
61330;SDS011;57640;52.472;-1.950;2023-05-17T07:28:31;2.35;;;1.85;;
61330;SDS011;57640;52.472;-1.950;2023-05-17T07:31:36;3.40;;;2.15;;
61330;SDS011;57640;52.472;-1.950;2023-05-17T07:34:42;2.40;;;2.00;;
61330;SDS011;57640;52.472;-1.950;2023-05-17T07:37:47;3.50;;;2.08;;
61330;SDS011;57640;52.472;-1.950;2023-05-17T07:40:55;2.40;;;2.00;;
61330;SDS011;57640;52.472;-1.950;2023-05-17T07:44:01;2.65;;;1.80;;
61330;SDS011;57640;52.472;-1.950;2023-05-17T07:47:06;2.90;;;2.08;;
61330;SDS011;57640;52.472;-1.950;2023-05-17T07:50:11;3.08;;;2.08;;
61330;SDS011;57640;52.472;-1.950;2023-05-17T07:53:17;2.67;;;1.95;;
61330;SDS011;57640;52.472;-1.950;2023-05-17T07:56:25;2.70;;;1.92;;
61330;SDS011;57640;52.472;-1.950;2023-05-17T07:59:30;2.13;;;1.88;;
61330;SDS011;57640;52.472;-1.950;2023-05-17T08:02:35;3.33;;;1.90;;
61330;SDS011;57640;52.472;-1.950;2023-05-17T08:05:41;2.53;;;1.80;;
61330;SDS011;57640;52.472;-1.950;2023-05-17T08:08:46;3.15;;;2.22;;
61330;SDS011;57640;52.472;-1.950;2023-05-17T08:11:54;3.80;;;1.95;;
61330;SDS011;57640;52.472;-1.950;2023-05-17T08:14:59;4.38;;;2.10;;
61330;SDS011;57640;52.472;-1.950;2023-05-17T08:18:05;2.22;;;1.75;;
61330;SDS011;57640;52.472;-1.950;2023-05-17T08:21:10;2.33;;;1.92;;
61330;SDS011;57640;52.472;-1.950;2023-05-17T08:24:15;2.30;;;2.08;;
61330;SDS011;57640;52.472;-1.950;2023-05-17T08:27:24;3.00;;;1.83;;
61330;SDS011;57640;52.472;-1.950;2023-05-17T08:30:32;3.08;;;1.83;;
61330;SDS011;57640;52.472;-1.950;2023-05-17T08:33:37;4.20;;;2.00;;
61330;SDS011;57640;52.472;-1.950;2023-05-17T08:36:43;2.47;;;1.75;;
61330;SDS011;57640;52.472;-1.950;2023-05-17T08:39:49;3.00;;;1.88;;
61330;SDS011;57640;52.472;-1.950;2023-05-17T08:42:57;3.28;;;2.05;;
61330;SDS011;57640;52.472;-1.950;2023-05-17T08:46:02;3.13;;;1.80;;
61330;SDS011;57640;52.472;-1.950;2023-05-17T08:49:07;3.70;;;1.90;;
61330;SDS011;57640;52.472;-1.950;2023-05-17T08:52:14;3.45;;;1.65;;
61330;SDS011;57640;52.472;-1.950;2023-05-17T08:55:19;6.07;;;2.55;;
61330;SDS011;57640;52.472;-1.950;2023-05-17T08:58:30;5.13;;;2.60;;
61330;SDS011;57640;52.472;-1.950;2023-05-17T09:01:36;3.60;;;2.38;;
61330;SDS011;57640;52.472;-1.950;2023-05-17T09:04:42;3.28;;;2.33;;
61330;SDS011;57640;52.472;-1.950;2023-05-17T09:07:48;3.75;;;2.40;;
61330;SDS011;57640;52.472;-1.950;2023-05-17T09:10:54;4.75;;;2.40;;
61330;SDS011;57640;52.472;-1.950;2023-05-17T09:14:03;4.53;;;2.60;;
61330;SDS011;57640;52.472;-1.950;2023-05-17T09:20:14;3.65;;;2.40;;
61330;SDS011;57640;52.472;-1.950;2023-05-17T09:23:25;3.03;;;2.20;;
61330;SDS011;57640;52.472;-1.950;2023-05-17T09:26:37;5.68;;;2.72;;
61330;SDS011;57640;52.472;-1.950;2023-05-17T09:29:45;3.97;;;2.55;;
61330;SDS011;57640;52.472;-1.950;2023-05-17T09:32:51;3.88;;;2.67;;
61330;SDS011;57640;52.472;-1.950;2023-05-17T09:35:56;2.92;;;2.40;;
61330;SDS011;57640;52.472;-1.950;2023-05-17T09:39:03;6.53;;;2.83;;
61330;SDS011;57640;52.472;-1.950;2023-05-17T09:42:09;4.78;;;2.92;;
61330;SDS011;57640;52.472;-1.950;2023-05-17T09:45:22;4.65;;;2.58;;
61330;SDS011;57640;52.472;-1.950;2023-05-17T09:48:27;3.90;;;2.78;;
61330;SDS011;57640;52.472;-1.950;2023-05-17T09:51:33;4.53;;;2.90;;
61330;SDS011;57640;52.472;-1.950;2023-05-17T09:54:39;6.90;;;3.75;;
61330;SDS011;57640;52.472;-1.950;2023-05-17T09:57:45;5.07;;;3.55;;
61330;SDS011;57640;52.472;-1.950;2023-05-17T10:00:53;6.35;;;3.28;;
61330;SDS011;57640;52.472;-1.950;2023-05-17T10:04:00;5.20;;;3.28;;
61330;SDS011;57640;52.472;-1.950;2023-05-17T10:07:06;7.40;;;3.88;;
61330;SDS011;57640;52.472;-1.950;2023-05-17T10:10:11;6.18;;;3.88;;
61330;SDS011;57640;52.472;-1.950;2023-05-17T10:13:19;5.38;;;3.67;;
61330;SDS011;57640;52.472;-1.950;2023-05-17T10:16:29;4.80;;;4.20;;
61330;SDS011;57640;52.472;-1.950;2023-05-17T10:19:36;5.35;;;3.58;;
61330;SDS011;57640;52.472;-1.950;2023-05-17T10:22:41;5.68;;;3.50;;
61330;SDS011;57640;52.472;-1.950;2023-05-17T10:25:47;4.80;;;3.85;;
61330;SDS011;57640;52.472;-1.950;2023-05-17T10:28:53;5.25;;;3.80;;
61330;SDS011;57640;52.472;-1.950;2023-05-17T10:32:05;4.88;;;3.75;;
61330;SDS011;57640;52.472;-1.950;2023-05-17T10:35:11;4.72;;;3.65;;
61330;SDS011;57640;52.472;-1.950;2023-05-17T10:38:19;5.72;;;3.53;;
61330;SDS011;57640;52.472;-1.950;2023-05-17T10:41:30;5.05;;;3.47;;
61330;SDS011;57640;52.472;-1.950;2023-05-17T10:44:36;5.13;;;3.85;;
61330;SDS011;57640;52.472;-1.950;2023-05-17T10:47:44;5.38;;;3.33;;
61330;SDS011;57640;52.472;-1.950;2023-05-17T10:50:50;5.05;;;3.20;;
61330;SDS011;57640;52.472;-1.950;2023-05-17T10:54:04;6.15;;;3.53;;
61330;SDS011;57640;52.472;-1.950;2023-05-17T10:57:17;6.55;;;3.20;;
61330;SDS011;57640;52.472;-1.950;2023-05-17T11:00:23;5.90;;;3.33;;
61330;SDS011;57640;52.472;-1.950;2023-05-17T11:03:33;5.00;;;3.40;;
61330;SDS011;57640;52.472;-1.950;2023-05-17T11:06:41;5.47;;;3.60;;
61330;SDS011;57640;52.472;-1.950;2023-05-17T11:09:48;4.78;;;3.35;;
61330;SDS011;57640;52.472;-1.950;2023-05-17T11:12:55;4.53;;;3.20;;
61330;SDS011;57640;52.472;-1.950;2023-05-17T11:16:03;4.65;;;3.45;;
61330;SDS011;57640;52.472;-1.950;2023-05-17T11:19:11;5.95;;;3.70;;
61330;SDS011;57640;52.472;-1.950;2023-05-17T11:22:17;6.18;;;3.60;;
61330;SDS011;57640;52.472;-1.950;2023-05-17T11:25:22;4.82;;;3.65;;
61330;SDS011;57640;52.472;-1.950;2023-05-17T11:28:28;4.68;;;3.60;;
61330;SDS011;57640;52.472;-1.950;2023-05-17T11:31:41;5.45;;;3.75;;
61330;SDS011;57640;52.472;-1.950;2023-05-17T11:34:53;6.13;;;3.90;;
61330;SDS011;57640;52.472;-1.950;2023-05-17T11:38:11;4.40;;;3.30;;
61330;SDS011;57640;52.472;-1.950;2023-05-17T11:41:18;5.95;;;3.58;;
61330;SDS011;57640;52.472;-1.950;2023-05-17T11:44:26;5.63;;;3.88;;
61330;SDS011;57640;52.472;-1.950;2023-05-17T11:50:40;5.97;;;3.53;;
61330;SDS011;57640;52.472;-1.950;2023-05-17T11:53:46;4.35;;;3.25;;
61330;SDS011;57640;52.472;-1.950;2023-05-17T11:56:51;4.13;;;3.10;;
61330;SDS011;57640;52.472;-1.950;2023-05-17T11:59:57;6.03;;;3.45;;
61330;SDS011;57640;52.472;-1.950;2023-05-17T12:03:15;5.15;;;2.90;;
61330;SDS011;57640;52.472;-1.950;2023-05-17T12:06:23;4.93;;;3.17;;
61330;SDS011;57640;52.472;-1.950;2023-05-17T12:12:34;5.45;;;3.28;;
61330;SDS011;57640;52.472;-1.950;2023-05-17T12:15:40;5.03;;;3.50;;
61330;SDS011;57640;52.472;-1.950;2023-05-17T12:18:48;4.93;;;3.22;;
61330;SDS011;57640;52.472;-1.950;2023-05-17T12:22:06;5.75;;;3.22;;
61330;SDS011;57640;52.472;-1.950;2023-05-17T12:25:19;5.57;;;3.60;;
61330;SDS011;57640;52.472;-1.950;2023-05-17T12:28:26;5.22;;;3.40;;
61330;SDS011;57640;52.472;-1.950;2023-05-17T12:31:32;5.18;;;3.67;;
61330;SDS011;57640;52.472;-1.950;2023-05-17T12:34:38;4.88;;;3.55;;
61330;SDS011;57640;52.472;-1.950;2023-05-17T12:37:46;4.13;;;3.10;;
61330;SDS011;57640;52.472;-1.950;2023-05-17T12:40:51;5.07;;;3.47;;
61330;SDS011;57640;52.472;-1.950;2023-05-17T12:43:57;5.55;;;3.33;;
61330;SDS011;57640;52.472;-1.950;2023-05-17T12:47:02;5.35;;;3.33;;
61330;SDS011;57640;52.472;-1.950;2023-05-17T12:50:08;5.20;;;3.53;;
61330;SDS011;57640;52.472;-1.950;2023-05-17T12:53:16;4.97;;;3.38;;
61330;SDS011;57640;52.472;-1.950;2023-05-17T12:56:22;7.50;;;3.47;;
61330;SDS011;57640;52.472;-1.950;2023-05-17T12:59:27;5.90;;;3.50;;
61330;SDS011;57640;52.472;-1.950;2023-05-17T13:02:39;4.63;;;3.55;;
61330;SDS011;57640;52.472;-1.950;2023-05-17T13:05:45;5.70;;;3.53;;
61330;SDS011;57640;52.472;-1.950;2023-05-17T13:08:59;5.05;;;3.40;;
61330;SDS011;57640;52.472;-1.950;2023-05-17T13:12:05;4.20;;;3.05;;
61330;SDS011;57640;52.472;-1.950;2023-05-17T13:15:11;6.03;;;3.30;;
61330;SDS011;57640;52.472;-1.950;2023-05-17T13:18:17;4.78;;;3.13;;
61330;SDS011;57640;52.472;-1.950;2023-05-17T13:21:23;4.00;;;3.40;;
61330;SDS011;57640;52.472;-1.950;2023-05-17T13:24:32;4.97;;;3.03;;
61330;SDS011;57640;52.472;-1.950;2023-05-17T13:27:37;5.40;;;3.25;;
61330;SDS011;57640;52.472;-1.950;2023-05-17T13:33:53;4.57;;;3.20;;
61330;SDS011;57640;52.472;-1.950;2023-05-17T13:36:58;5.05;;;3.13;;
61330;SDS011;57640;52.472;-1.950;2023-05-17T13:40:07;4.20;;;3.33;;
61330;SDS011;57640;52.472;-1.950;2023-05-17T13:43:12;5.32;;;3.42;;
61330;SDS011;57640;52.472;-1.950;2023-05-17T13:46:18;4.70;;;2.92;;
61330;SDS011;57640;52.472;-1.950;2023-05-17T13:49:23;4.85;;;3.20;;
61330;SDS011;57640;52.472;-1.950;2023-05-17T13:52:29;4.88;;;3.53;;
61330;SDS011;57640;52.472;-1.950;2023-05-17T13:55:37;5.75;;;3.38;;
61330;SDS011;57640;52.472;-1.950;2023-05-17T13:58:43;4.38;;;2.88;;
61330;SDS011;57640;52.472;-1.950;2023-05-17T14:01:49;5.32;;;3.05;;
61330;SDS011;57640;52.472;-1.950;2023-05-17T14:04:55;5.90;;;3.13;;
61330;SDS011;57640;52.472;-1.950;2023-05-17T14:08:00;3.38;;;3.00;;
61330;SDS011;57640;52.472;-1.950;2023-05-17T14:11:08;3.95;;;2.92;;
61330;SDS011;57640;52.472;-1.950;2023-05-17T14:14:13;5.50;;;2.90;;
61330;SDS011;57640;52.472;-1.950;2023-05-17T14:17:18;5.63;;;3.22;;
61330;SDS011;57640;52.472;-1.950;2023-05-17T14:20:24;4.30;;;2.97;;
61330;SDS011;57640;52.472;-1.950;2023-05-17T14:23:29;5.05;;;3.00;;
61330;SDS011;57640;52.472;-1.950;2023-05-17T14:26:38;4.47;;;2.95;;
61330;SDS011;57640;52.472;-1.950;2023-05-17T14:29:44;4.97;;;3.20;;
61330;SDS011;57640;52.472;-1.950;2023-05-17T14:32:49;6.10;;;3.33;;
61330;SDS011;57640;52.472;-1.950;2023-05-17T14:35:54;4.07;;;2.85;;
61330;SDS011;57640;52.472;-1.950;2023-05-17T14:39:00;5.65;;;3.05;;
61330;SDS011;57640;52.472;-1.950;2023-05-17T14:42:08;4.85;;;3.00;;
61330;SDS011;57640;52.472;-1.950;2023-05-17T14:45:13;5.97;;;3.20;;
61330;SDS011;57640;52.472;-1.950;2023-05-17T14:48:19;5.18;;;3.28;;
61330;SDS011;57640;52.472;-1.950;2023-05-17T14:51:24;5.63;;;3.13;;
61330;SDS011;57640;52.472;-1.950;2023-05-17T14:54:29;4.65;;;2.80;;
61330;SDS011;57640;52.472;-1.950;2023-05-17T14:57:39;5.32;;;3.05;;
61330;SDS011;57640;52.472;-1.950;2023-05-17T15:00:44;7.45;;;3.47;;
61330;SDS011;57640;52.472;-1.950;2023-05-17T15:03:53;3.72;;;2.75;;
61330;SDS011;57640;52.472;-1.950;2023-05-17T15:06:58;5.07;;;3.08;;
61330;SDS011;57640;52.472;-1.950;2023-05-17T15:10:04;3.70;;;2.85;;
61330;SDS011;57640;52.472;-1.950;2023-05-17T15:13:12;4.25;;;2.80;;
61330;SDS011;57640;52.472;-1.950;2023-05-17T15:16:17;4.43;;;2.58;;
61330;SDS011;57640;52.472;-1.950;2023-05-17T15:19:23;4.00;;;2.80;;
61330;SDS011;57640;52.472;-1.950;2023-05-17T15:22:28;4.65;;;2.78;;
61330;SDS011;57640;52.472;-1.950;2023-05-17T15:25:34;4.05;;;2.80;;
61330;SDS011;57640;52.472;-1.950;2023-05-17T15:28:42;4.50;;;2.80;;
61330;SDS011;57640;52.472;-1.950;2023-05-17T15:31:48;4.60;;;2.83;;
61330;SDS011;57640;52.472;-1.950;2023-05-17T15:34:53;5.50;;;2.95;;
61330;SDS011;57640;52.472;-1.950;2023-05-17T15:38:02;6.95;;;2.78;;
61330;SDS011;57640;52.472;-1.950;2023-05-17T15:41:09;3.72;;;2.50;;
61330;SDS011;57640;52.472;-1.950;2023-05-17T15:44:18;5.10;;;2.80;;
61330;SDS011;57640;52.472;-1.950;2023-05-17T15:47:25;3.85;;;2.40;;
61330;SDS011;57640;52.472;-1.950;2023-05-17T15:50:30;6.43;;;2.95;;
61330;SDS011;57640;52.472;-1.950;2023-05-17T15:53:36;4.45;;;2.90;;
61330;SDS011;57640;52.472;-1.950;2023-05-17T15:56:41;5.30;;;3.00;;
61330;SDS011;57640;52.472;-1.950;2023-05-17T15:59:50;4.20;;;2.50;;
61330;SDS011;57640;52.472;-1.950;2023-05-17T16:02:55;3.55;;;2.60;;
61330;SDS011;57640;52.472;-1.950;2023-05-17T16:06:01;4.97;;;2.53;;
61330;SDS011;57640;52.472;-1.950;2023-05-17T16:09:06;4.47;;;2.50;;
61330;SDS011;57640;52.472;-1.950;2023-05-17T16:12:12;5.32;;;2.80;;
61330;SDS011;57640;52.472;-1.950;2023-05-17T16:15:21;4.70;;;2.72;;
61330;SDS011;57640;52.472;-1.950;2023-05-17T16:18:26;4.28;;;2.78;;
61330;SDS011;57640;52.472;-1.950;2023-05-17T16:21:32;4.65;;;2.58;;
61330;SDS011;57640;52.472;-1.950;2023-05-17T16:24:37;5.68;;;3.00;;
61330;SDS011;57640;52.472;-1.950;2023-05-17T16:27:43;4.25;;;2.47;;
61330;SDS011;57640;52.472;-1.950;2023-05-17T16:30:51;4.63;;;2.58;;
61330;SDS011;57640;52.472;-1.950;2023-05-17T16:33:57;4.57;;;2.45;;
61330;SDS011;57640;52.472;-1.950;2023-05-17T16:37:02;5.57;;;2.40;;
61330;SDS011;57640;52.472;-1.950;2023-05-17T16:40:08;3.15;;;2.28;;
61330;SDS011;57640;52.472;-1.950;2023-05-17T16:43:14;4.47;;;2.35;;
61330;SDS011;57640;52.472;-1.950;2023-05-17T16:46:22;3.28;;;2.60;;
61330;SDS011;57640;52.472;-1.950;2023-05-17T16:49:27;3.60;;;2.50;;
61330;SDS011;57640;52.472;-1.950;2023-05-17T16:52:33;3.90;;;2.40;;
61330;SDS011;57640;52.472;-1.950;2023-05-17T16:55:38;3.72;;;2.30;;
61330;SDS011;57640;52.472;-1.950;2023-05-17T16:58:43;4.15;;;2.70;;
61330;SDS011;57640;52.472;-1.950;2023-05-17T17:01:51;3.92;;;2.40;;
61330;SDS011;57640;52.472;-1.950;2023-05-17T17:04:57;3.53;;;2.50;;
61330;SDS011;57640;52.472;-1.950;2023-05-17T17:08:02;3.30;;;2.60;;
61330;SDS011;57640;52.472;-1.950;2023-05-17T17:11:08;4.03;;;2.83;;
61330;SDS011;57640;52.472;-1.950;2023-05-17T17:14:13;3.42;;;2.60;;
61330;SDS011;57640;52.472;-1.950;2023-05-17T17:17:21;3.47;;;2.40;;
61330;SDS011;57640;52.472;-1.950;2023-05-17T17:20:26;3.88;;;2.50;;
61330;SDS011;57640;52.472;-1.950;2023-05-17T17:23:32;4.38;;;2.55;;
61330;SDS011;57640;52.472;-1.950;2023-05-17T17:26:37;2.65;;;2.40;;
61330;SDS011;57640;52.472;-1.950;2023-05-17T17:29:43;4.25;;;2.42;;
61330;SDS011;57640;52.472;-1.950;2023-05-17T17:32:51;2.97;;;2.50;;
61330;SDS011;57640;52.472;-1.950;2023-05-17T17:35:56;2.80;;;2.35;;
61330;SDS011;57640;52.472;-1.950;2023-05-17T17:39:02;3.78;;;2.50;;
61330;SDS011;57640;52.472;-1.950;2023-05-17T17:42:08;3.85;;;2.40;;
61330;SDS011;57640;52.472;-1.950;2023-05-17T17:45:13;3.42;;;2.33;;
61330;SDS011;57640;52.472;-1.950;2023-05-17T17:48:21;3.17;;;2.42;;
61330;SDS011;57640;52.472;-1.950;2023-05-17T17:51:26;3.65;;;2.80;;
61330;SDS011;57640;52.472;-1.950;2023-05-17T17:54:32;2.78;;;2.40;;
61330;SDS011;57640;52.472;-1.950;2023-05-17T17:57:37;4.07;;;2.60;;
61330;SDS011;57640;52.472;-1.950;2023-05-17T18:00:43;4.68;;;2.75;;
61330;SDS011;57640;52.472;-1.950;2023-05-17T18:03:51;4.47;;;2.55;;
61330;SDS011;57640;52.472;-1.950;2023-05-17T18:06:56;4.25;;;2.63;;
61330;SDS011;57640;52.472;-1.950;2023-05-17T18:10:03;4.38;;;2.53;;
61330;SDS011;57640;52.472;-1.950;2023-05-17T18:13:08;4.35;;;2.45;;
61330;SDS011;57640;52.472;-1.950;2023-05-17T18:16:14;5.13;;;2.72;;
61330;SDS011;57640;52.472;-1.950;2023-05-17T18:19:22;4.43;;;2.60;;
61330;SDS011;57640;52.472;-1.950;2023-05-17T18:22:27;4.72;;;2.38;;
61330;SDS011;57640;52.472;-1.950;2023-05-17T18:25:33;3.35;;;2.40;;
61330;SDS011;57640;52.472;-1.950;2023-05-17T18:28:38;3.60;;;2.50;;
61330;SDS011;57640;52.472;-1.950;2023-05-17T18:31:44;4.50;;;2.40;;
61330;SDS011;57640;52.472;-1.950;2023-05-17T18:34:52;3.72;;;2.70;;
61330;SDS011;57640;52.472;-1.950;2023-05-17T18:37:57;4.07;;;2.38;;
61330;SDS011;57640;52.472;-1.950;2023-05-17T18:41:03;3.92;;;2.50;;
61330;SDS011;57640;52.472;-1.950;2023-05-17T18:44:09;4.18;;;2.30;;